createdAt,value
2018-03-24T00:00:22.366Z,99427.98
2018-03-24T00:01:30.356Z,99424.77
2018-03-24T00:02:40.761Z,99426.35
2018-03-24T00:03:46.974Z,99423.06
2018-03-24T00:04:53.161Z,99425.25
2018-03-24T00:06:05.411Z,99431.69
2018-03-24T00:07:11.644Z,99426.45
2018-03-24T00:08:17.826Z,99426.45
2018-03-24T00:09:24.658Z,99422.55
2018-03-24T00:10:30.997Z,99421.09
2018-03-24T00:11:36.949Z,99418.38
2018-03-24T00:14:04.550Z,99418.02
2018-03-24T00:15:13.559Z,99413.63
2018-03-24T00:17:34.728Z,99413.72
2018-03-24T00:18:41.235Z,99410.55
2018-03-24T00:19:47.437Z,99412.66
2018-03-24T00:20:57.578Z,99411.23
2018-03-24T00:22:03.785Z,99406.86
2018-03-24T00:23:09.658Z,99413.48
2018-03-24T00:24:15.846Z,99413.64
2018-03-24T00:25:22.119Z,99411.41
2018-03-24T00:26:32.536Z,99411.27
2018-03-24T00:27:40.591Z,99414.00
2018-03-24T00:28:46.859Z,99412.34
2018-03-24T00:29:53.109Z,99407.02
2018-03-24T00:30:59.294Z,99411.83
2018-03-24T00:32:10.772Z,99408.45
2018-03-24T00:33:16.948Z,99413.25
2018-03-24T00:34:23.181Z,99411.58
2018-03-24T00:35:29.366Z,99412.34
2018-03-24T00:36:35.580Z,99404.48
2018-03-24T00:37:41.758Z,99413.37
2018-03-24T00:38:47.910Z,99405.97
2018-03-24T00:39:54.135Z,99408.02
2018-03-24T00:41:00.336Z,99407.22
2018-03-24T00:42:06.505Z,99409.09
2018-03-24T00:43:12.712Z,99410.30
2018-03-24T00:44:18.938Z,99413.52
2018-03-24T00:45:27.934Z,99410.84
2018-03-24T00:46:33.822Z,99410.66
2018-03-24T00:47:40.057Z,99413.75
2018-03-24T00:48:46.262Z,99414.17
2018-03-24T00:49:52.499Z,99414.19
2018-03-24T00:51:03.577Z,99415.64
2018-03-24T00:52:14.949Z,99411.25
2018-03-24T00:53:26.206Z,99415.05
2018-03-24T00:54:32.390Z,99410.81
2018-03-24T00:55:38.569Z,99407.64
2018-03-24T00:56:44.281Z,99411.88
2018-03-24T00:57:52.869Z,99407.56
2018-03-24T00:59:01.898Z,99402.89
2018-03-24T01:00:08.044Z,99407.61
2018-03-24T01:01:14.226Z,99408.94
2018-03-24T01:02:20.378Z,99404.41
2018-03-24T01:03:26.731Z,99403.75
2018-03-24T01:04:32.913Z,99402.17
2018-03-24T01:05:40.122Z,99404.88
2018-03-24T01:06:46.388Z,99406.05
2018-03-24T01:07:52.605Z,99401.69
2018-03-24T01:08:58.529Z,99398.67
2018-03-24T01:10:04.621Z,99401.39
2018-03-24T01:11:16.839Z,99401.42
2018-03-24T01:12:23.011Z,99398.23
2018-03-24T01:13:29.208Z,99399.63
2018-03-24T01:14:35.194Z,99402.30
2018-03-24T01:15:41.486Z,99400.38
2018-03-24T01:16:48.659Z,99402.61
2018-03-24T01:17:57.831Z,99402.98
2018-03-24T01:19:04.161Z,99403.82
2018-03-24T01:20:10.803Z,99398.91
2018-03-24T01:21:17.052Z,99394.85
2018-03-24T01:22:23.261Z,99393.30
2018-03-24T01:23:29.552Z,99392.54
2018-03-24T01:24:35.720Z,99392.34
2018-03-24T01:25:42.039Z,99396.15
2018-03-24T01:26:53.211Z,99395.96
2018-03-24T01:27:59.414Z,99393.23
2018-03-24T01:29:05.632Z,99390.30
2018-03-24T01:30:11.781Z,99394.96
2018-03-24T01:31:17.980Z,99390.78
2018-03-24T01:32:24.185Z,99388.80
2018-03-24T01:33:29.982Z,99389.05
2018-03-24T01:34:36.152Z,99386.84
2018-03-24T01:35:42.341Z,99388.72
2018-03-24T01:36:48.601Z,99381.86
2018-03-24T01:37:54.764Z,99375.89
2018-03-24T01:39:01.029Z,99378.12
2018-03-24T01:40:07.369Z,99378.83
2018-03-24T01:41:13.560Z,99374.95
2018-03-24T01:42:19.742Z,99380.99
2018-03-24T01:43:25.931Z,99376.33
2018-03-24T01:44:32.160Z,99375.22
2018-03-24T01:45:39.372Z,99376.67
2018-03-24T01:46:46.684Z,99386.59
2018-03-24T01:47:52.885Z,99376.04
2018-03-24T01:48:59.083Z,99377.17
2018-03-24T01:50:04.641Z,99374.59
2018-03-24T01:51:10.581Z,99379.24
2018-03-24T01:52:16.777Z,99376.14
2018-03-24T01:53:24.933Z,99377.95
2018-03-24T01:54:47.236Z,99376.06
2018-03-24T01:55:53.422Z,99375.37
2018-03-24T01:57:00.246Z,99369.00
2018-03-24T01:58:06.405Z,99372.19
2018-03-24T01:59:12.612Z,99370.10
2018-03-24T02:00:18.861Z,99369.99
2018-03-24T02:01:23.709Z,99364.94
2018-03-24T02:02:29.915Z,99370.47
2018-03-24T02:03:36.137Z,99370.81
2018-03-24T02:04:42.369Z,99365.00
2018-03-24T02:05:48.256Z,99362.14
2018-03-24T02:06:54.455Z,99365.81
2018-03-24T02:08:00.650Z,99363.03
2018-03-24T02:09:06.454Z,99366.14
2018-03-24T02:10:13.358Z,99365.34
2018-03-24T02:11:19.517Z,99363.23
2018-03-24T02:12:26.685Z,99365.69
2018-03-24T02:13:32.896Z,99364.23
2018-03-24T02:14:39.032Z,99366.75
2018-03-24T02:15:44.935Z,99368.37
2018-03-24T02:16:51.070Z,99359.88
2018-03-24T02:18:05.838Z,99358.93
2018-03-24T02:19:11.777Z,99366.25
2018-03-24T02:20:18.313Z,99370.19
2018-03-24T02:21:27.284Z,99361.64
2018-03-24T02:22:33.717Z,99366.45
2018-03-24T02:23:45.354Z,99361.73
2018-03-24T02:24:52.749Z,99359.13
2018-03-24T02:25:58.846Z,99357.52
2018-03-24T02:27:05.046Z,99358.77
2018-03-24T02:28:11.229Z,99361.05
2018-03-24T02:29:17.488Z,99353.44
2018-03-24T02:30:23.514Z,99357.45
2018-03-24T02:31:29.537Z,99357.39
2018-03-24T02:32:35.760Z,99352.77
2018-03-24T02:33:41.807Z,99356.71
2018-03-24T02:34:48.002Z,99358.20
2018-03-24T02:35:54.235Z,99362.84
2018-03-24T02:37:00.281Z,99357.62
2018-03-24T02:38:10.389Z,99356.66
2018-03-24T02:39:16.632Z,99359.87
2018-03-24T02:40:22.872Z,99353.72
2018-03-24T02:41:28.891Z,99354.64
2018-03-24T02:42:35.077Z,99357.35
2018-03-24T02:43:43.961Z,99354.43
2018-03-24T02:44:52.175Z,99351.41
2018-03-24T02:45:58.345Z,99348.02
2018-03-24T02:47:04.513Z,99352.83
2018-03-24T02:48:10.738Z,99350.97
2018-03-24T02:49:16.986Z,99348.89
2018-03-24T02:50:23.181Z,99344.86
2018-03-24T02:51:29.406Z,99345.70
2018-03-24T02:52:37.022Z,99352.17
2018-03-24T02:53:43.201Z,99345.53
2018-03-24T02:54:49.390Z,99345.60
2018-03-24T02:55:55.583Z,99345.77
2018-03-24T02:57:01.817Z,99344.52
2018-03-24T02:58:08.034Z,99344.34
2018-03-24T02:59:14.226Z,99347.52
2018-03-24T03:00:23.883Z,99345.02
2018-03-24T03:01:30.194Z,99347.94
2018-03-24T03:02:36.442Z,99344.47
2018-03-24T03:03:42.674Z,99341.75
2018-03-24T03:04:48.944Z,99345.17
2018-03-24T03:05:55.185Z,99341.04
2018-03-24T03:07:01.369Z,99341.92
2018-03-24T03:08:07.286Z,99340.86
2018-03-24T03:09:13.158Z,99345.35
2018-03-24T03:10:20.189Z,99343.61
2018-03-24T03:11:26.405Z,99343.11
2018-03-24T03:12:32.627Z,99342.77
2018-03-24T03:13:38.819Z,99342.68
2018-03-24T03:14:48.213Z,99341.22
2018-03-24T03:15:54.445Z,99336.92
2018-03-24T03:17:00.622Z,99339.91
2018-03-24T03:18:06.117Z,99347.09
2018-03-24T03:19:14.438Z,99342.36
2018-03-24T03:20:20.481Z,99342.24
2018-03-24T03:21:26.032Z,99343.98
2018-03-24T03:22:31.836Z,99338.70
2018-03-24T03:23:37.996Z,99337.58
2018-03-24T03:24:44.148Z,99334.81
2018-03-24T03:25:54.466Z,99336.53
2018-03-24T03:27:01.980Z,99339.59
2018-03-24T03:28:07.621Z,99330.20
2018-03-24T03:29:13.987Z,99337.67
2018-03-24T03:30:25.977Z,99335.45
2018-03-24T03:31:32.201Z,99340.02
2018-03-24T03:32:38.222Z,99339.72
2018-03-24T03:33:44.517Z,99334.73
2018-03-24T03:34:50.666Z,99337.44
2018-03-24T03:35:56.809Z,99332.23
2018-03-24T03:37:04.016Z,99330.95
2018-03-24T03:38:17.587Z,99334.48
2018-03-24T03:39:25.637Z,99332.00
2018-03-24T03:40:31.815Z,99333.73
2018-03-24T03:41:44.049Z,99331.45
2018-03-24T03:42:50.180Z,99331.92
2018-03-24T03:44:00.869Z,99323.63
2018-03-24T03:45:07.069Z,99329.55
2018-03-24T03:46:13.351Z,99326.98
2018-03-24T03:47:25.845Z,99332.30
2018-03-24T03:48:32.306Z,99332.81
2018-03-24T03:49:38.505Z,99328.30
2018-03-24T03:50:50.800Z,99331.52
2018-03-24T03:51:56.614Z,99326.89
2018-03-24T03:53:02.778Z,99331.94
2018-03-24T03:54:13.072Z,99330.66
2018-03-24T03:55:19.040Z,99330.93
2018-03-24T03:56:28.308Z,99329.18
2018-03-24T03:57:34.550Z,99334.42
2018-03-24T03:58:41.076Z,99333.66
2018-03-24T03:59:47.282Z,99326.67
2018-03-24T04:00:53.428Z,99325.09
2018-03-24T04:01:59.602Z,99334.23
2018-03-24T04:03:05.814Z,99333.05
2018-03-24T04:04:12.009Z,99331.81
2018-03-24T04:05:18.197Z,99323.36
2018-03-24T04:06:34.409Z,99326.66
2018-03-24T04:07:44.001Z,99327.83
2018-03-24T04:08:50.215Z,99326.90
2018-03-24T04:09:56.410Z,99329.09
2018-03-24T04:11:02.569Z,99331.70
2018-03-24T04:12:08.709Z,99334.44
2018-03-24T04:13:14.608Z,99330.68
2018-03-24T04:14:20.501Z,99328.55
2018-03-24T04:15:41.296Z,99330.26
2018-03-24T04:16:47.518Z,99328.45
2018-03-24T04:17:53.695Z,99332.20
2018-03-24T04:18:59.898Z,99333.11
2018-03-24T04:20:11.253Z,99326.26
2018-03-24T04:21:17.463Z,99333.72
2018-03-24T04:22:23.621Z,99331.08
2018-03-24T04:23:29.779Z,99328.98
2018-03-24T04:24:38.151Z,99329.57
2018-03-24T04:25:44.487Z,99332.13
2018-03-24T04:26:50.629Z,99329.98
2018-03-24T04:27:56.830Z,99334.30
2018-03-24T04:29:03.093Z,99336.43
2018-03-24T04:30:09.300Z,99334.70
2018-03-24T04:31:15.479Z,99340.75
2018-03-24T04:32:21.648Z,99338.00
2018-03-24T04:33:27.842Z,99335.71
2018-03-24T04:34:34.063Z,99339.88
2018-03-24T04:35:40.245Z,99339.09
2018-03-24T04:36:46.493Z,99336.14
2018-03-24T04:37:52.787Z,99335.58
2018-03-24T04:38:59.004Z,99339.59
2018-03-24T04:40:04.521Z,99345.96
2018-03-24T04:41:10.671Z,99339.00
2018-03-24T04:42:16.824Z,99342.17
2018-03-24T04:43:22.950Z,99345.69
2018-03-24T04:44:37.522Z,99348.36
2018-03-24T04:45:48.945Z,99358.25
2018-03-24T04:46:55.170Z,99348.26
2018-03-24T04:48:01.311Z,99352.08
2018-03-24T04:49:07.581Z,99356.33
2018-03-24T04:50:16.235Z,99350.12
2018-03-24T04:51:22.905Z,99350.12
2018-03-24T04:52:30.976Z,99354.45
2018-03-24T04:53:37.195Z,99354.66
2018-03-24T04:54:43.329Z,99355.11
2018-03-24T04:55:49.518Z,99349.20
2018-03-24T04:57:01.046Z,99350.88
2018-03-24T04:58:07.264Z,99359.88
2018-03-24T04:59:13.511Z,99353.02
2018-03-24T05:00:19.773Z,99353.43
2018-03-24T05:01:25.996Z,99360.27
2018-03-24T05:02:32.172Z,99349.44
2018-03-24T05:03:42.274Z,99351.63
2018-03-24T05:04:48.457Z,99359.77
2018-03-24T05:05:57.192Z,99348.50
2018-03-24T05:07:03.741Z,99353.73
2018-03-24T05:08:09.956Z,99359.45
2018-03-24T05:09:16.146Z,99355.96
2018-03-24T05:10:22.326Z,99360.27
2018-03-24T05:11:30.377Z,99352.44
2018-03-24T05:12:37.221Z,99352.87
2018-03-24T05:13:43.370Z,99356.23
2018-03-24T05:14:50.258Z,99357.09
2018-03-24T05:15:56.472Z,99356.57
2018-03-24T05:17:02.415Z,99357.75
2018-03-24T05:18:08.622Z,99356.86
2018-03-24T05:19:14.789Z,99349.48
2018-03-24T05:20:23.662Z,99355.13
2018-03-24T05:21:29.870Z,99355.50
2018-03-24T05:22:36.038Z,99358.53
2018-03-24T05:23:42.212Z,99356.86
2018-03-24T05:24:48.450Z,99354.50
2018-03-24T05:25:54.733Z,99359.28
2018-03-24T05:27:00.965Z,99353.91
2018-03-24T05:28:07.236Z,99353.91
2018-03-24T05:29:13.495Z,99356.39
2018-03-24T05:30:19.744Z,99361.58
2018-03-24T05:31:25.902Z,99355.17
2018-03-24T05:32:38.510Z,99355.81
2018-03-24T05:33:50.193Z,99354.29
2018-03-24T05:34:56.388Z,99351.77
2018-03-24T05:36:03.000Z,99348.08
2018-03-24T05:37:09.248Z,99353.02
2018-03-24T05:38:15.446Z,99350.72
2018-03-24T05:39:21.616Z,99347.35
2018-03-24T05:40:27.856Z,99350.36
2018-03-24T05:41:34.070Z,99352.23
2018-03-24T05:42:40.310Z,99351.87
2018-03-24T05:43:46.248Z,99358.20
2018-03-24T05:44:52.458Z,99349.14
2018-03-24T05:45:58.698Z,99353.70
2018-03-24T05:47:04.772Z,99351.75
2018-03-24T05:48:10.985Z,99354.08
2018-03-24T05:49:17.238Z,99358.23
2018-03-24T05:50:23.415Z,99352.94
2018-03-24T05:51:29.929Z,99349.84
2018-03-24T05:52:36.416Z,99356.76
2018-03-24T05:53:44.164Z,99359.58
2018-03-24T05:54:54.786Z,99357.67
2018-03-24T05:56:00.985Z,99360.02
2018-03-24T05:57:07.335Z,99352.45
2018-03-24T05:58:13.880Z,99353.55
2018-03-24T05:59:20.752Z,99354.40
2018-03-24T06:00:32.427Z,99356.03
2018-03-24T06:01:38.936Z,99361.37
2018-03-24T06:02:45.748Z,99360.41
2018-03-24T06:03:53.649Z,99366.30
2018-03-24T06:05:01.237Z,99367.58
2018-03-24T06:06:07.974Z,99366.03
2018-03-24T06:07:14.546Z,99367.65
2018-03-24T06:08:21.239Z,99370.38
2018-03-24T06:09:28.351Z,99376.46
2018-03-24T06:10:35.145Z,99372.98
2018-03-24T06:11:45.758Z,99367.13
2018-03-24T06:13:00.348Z,99372.03
2018-03-24T06:14:06.940Z,99368.27
2018-03-24T06:15:21.565Z,99370.91
2018-03-24T06:16:28.546Z,99375.70
2018-03-24T06:17:36.727Z,99380.78
2018-03-24T06:18:43.345Z,99377.66
2018-03-24T06:19:55.890Z,99376.81
2018-03-24T06:21:03.354Z,99376.87
2018-03-24T06:22:10.721Z,99374.87
2018-03-24T06:23:17.803Z,99374.56
2018-03-24T06:24:30.020Z,99376.34
2018-03-24T06:25:38.176Z,99373.27
2018-03-24T06:26:45.120Z,99376.42
2018-03-24T06:27:53.547Z,99375.66
2018-03-24T06:29:04.405Z,99378.38
2018-03-24T06:30:10.540Z,99377.06
2018-03-24T06:31:27.276Z,99374.35
2018-03-24T06:32:35.095Z,99378.73
2018-03-24T06:33:41.994Z,99378.41
2018-03-24T06:34:48.858Z,99384.89
2018-03-24T06:35:57.504Z,99381.44
2018-03-24T06:37:14.719Z,99382.27
2018-03-24T06:38:27.703Z,99379.19
2018-03-24T06:39:44.892Z,99383.67
2018-03-24T06:40:51.484Z,99374.81
2018-03-24T06:41:57.709Z,99378.04
2018-03-24T06:43:05.219Z,99382.44
2018-03-24T06:44:11.211Z,99379.97
2018-03-24T06:45:17.434Z,99382.25
2018-03-24T06:46:23.617Z,99376.78
2018-03-24T06:47:29.769Z,99384.05
2018-03-24T06:48:41.032Z,99387.27
2018-03-24T06:49:47.306Z,99373.59
2018-03-24T06:50:56.243Z,99378.11
2018-03-24T06:52:02.457Z,99381.84
2018-03-24T06:53:08.875Z,99380.41
2018-03-24T06:54:15.047Z,99381.67
2018-03-24T06:55:26.951Z,99387.61
2018-03-24T06:56:36.846Z,99388.45
2018-03-24T06:57:42.674Z,99385.48
2018-03-24T06:58:48.936Z,99381.45
2018-03-24T06:59:55.206Z,99384.82
2018-03-24T07:01:06.274Z,99391.22
2018-03-24T07:02:12.208Z,99392.52
2018-03-24T07:03:18.361Z,99392.11
2018-03-24T07:04:24.543Z,99389.38
2018-03-24T07:05:35.978Z,99386.38
2018-03-24T07:06:42.198Z,99386.98
2018-03-24T07:07:48.349Z,99389.34
2018-03-24T07:09:00.782Z,99392.28
2018-03-24T07:10:06.600Z,99386.58
2018-03-24T07:11:12.830Z,99390.58
2018-03-24T07:12:19.096Z,99391.77
2018-03-24T07:13:25.410Z,99389.88
2018-03-24T07:14:31.581Z,99394.59
2018-03-24T07:15:37.936Z,99393.73
2018-03-24T07:16:44.129Z,99403.00
2018-03-24T07:17:50.328Z,99397.13
2018-03-24T07:18:56.876Z,99402.05
2018-03-24T07:20:03.126Z,99407.22
2018-03-24T07:21:09.274Z,99405.90
2018-03-24T07:22:15.518Z,99407.98
2018-03-24T07:23:23.581Z,99411.61
2018-03-24T07:24:32.715Z,99412.85
2018-03-24T07:25:38.706Z,99418.38
2018-03-24T07:26:44.926Z,99411.52
2018-03-24T07:27:51.169Z,99413.93
2018-03-24T07:28:57.415Z,99420.04
2018-03-24T07:30:12.899Z,99420.00
2018-03-24T07:31:27.914Z,99415.88
2018-03-24T07:32:34.169Z,99417.58
2018-03-24T07:33:40.374Z,99423.02
2018-03-24T07:34:46.552Z,99423.13
2018-03-24T07:35:52.979Z,99418.97
2018-03-24T07:36:59.483Z,99426.01
2018-03-24T07:38:06.495Z,99423.31
2018-03-24T07:39:12.704Z,99426.45
2018-03-24T07:40:18.899Z,99433.66
2018-03-24T07:41:25.102Z,99429.18
2018-03-24T07:42:31.298Z,99432.98
2018-03-24T07:43:37.549Z,99432.23
2018-03-24T07:44:43.864Z,99430.92
2018-03-24T07:45:50.047Z,99434.37
2018-03-24T07:46:56.168Z,99429.41
2018-03-24T07:48:02.340Z,99427.97
2018-03-24T07:49:08.579Z,99428.33
2018-03-24T07:50:14.764Z,99431.48
2018-03-24T07:51:20.954Z,99428.49
2018-03-24T07:52:27.221Z,99423.06
2018-03-24T07:53:33.697Z,99425.34
2018-03-24T07:54:40.121Z,99424.38
2018-03-24T07:55:47.200Z,99428.41
2018-03-24T07:56:53.863Z,99428.16
2018-03-24T07:58:00.137Z,99430.47
2018-03-24T07:59:06.626Z,99430.88
2018-03-24T08:00:12.924Z,99429.51
2018-03-24T08:01:24.043Z,99436.39
2018-03-24T08:02:30.302Z,99441.56
2018-03-24T08:03:36.550Z,99435.44
2018-03-24T08:04:43.558Z,99442.41
2018-03-24T08:05:49.800Z,99442.03
2018-03-24T08:06:56.158Z,99443.73
2018-03-24T08:08:02.137Z,99441.84
2018-03-24T08:09:08.358Z,99445.69
2018-03-24T08:10:14.518Z,99436.31
2018-03-24T08:11:20.750Z,99441.52
2018-03-24T08:12:27.057Z,99445.52
2018-03-24T08:13:33.275Z,99444.02
2018-03-24T08:14:39.535Z,99436.45
2018-03-24T08:15:46.400Z,99442.44
2018-03-24T08:16:52.780Z,99443.88
2018-03-24T08:17:59.196Z,99446.62
2018-03-24T08:19:08.341Z,99444.14
2018-03-24T08:20:14.720Z,99431.66
2018-03-24T08:21:23.671Z,99437.17
2018-03-24T08:22:30.533Z,99432.95
2018-03-24T08:23:36.497Z,99441.67
2018-03-24T08:24:42.738Z,99440.08
2018-03-24T08:25:48.980Z,99442.48
2018-03-24T08:26:55.236Z,99440.09
2018-03-24T08:28:01.590Z,99438.48
2018-03-24T08:29:07.893Z,99443.63
2018-03-24T08:30:14.170Z,99436.02
2018-03-24T08:31:20.557Z,99440.61
2018-03-24T08:32:26.845Z,99441.98
2018-03-24T08:33:33.110Z,99439.07
2018-03-24T08:34:40.848Z,99438.77
2018-03-24T08:35:47.053Z,99443.13
2018-03-24T08:36:53.276Z,99442.61
2018-03-24T08:38:00.130Z,99447.17
2018-03-24T08:39:10.227Z,99444.21
2018-03-24T08:40:16.441Z,99448.97
2018-03-24T08:41:22.686Z,99446.38
2018-03-24T08:42:28.964Z,99446.67
2018-03-24T08:43:35.276Z,99448.45
2018-03-24T08:44:46.790Z,99447.59
2018-03-24T08:45:53.035Z,99452.02
2018-03-24T08:47:05.422Z,99447.09
2018-03-24T08:48:11.603Z,99445.19
2018-03-24T08:49:18.111Z,99447.97
2018-03-24T08:50:24.311Z,99448.61
2018-03-24T08:51:44.125Z,99447.88
2018-03-24T08:52:50.441Z,99442.85
2018-03-24T08:53:56.735Z,99445.98
2018-03-24T08:55:03.242Z,99450.67
2018-03-24T08:56:09.566Z,99447.70
2018-03-24T08:57:15.860Z,99443.55
2018-03-24T08:58:22.148Z,99444.44
2018-03-24T08:59:28.394Z,99444.96
2018-03-24T09:00:34.661Z,99451.02
2018-03-24T09:01:40.946Z,99456.48
2018-03-24T09:02:48.028Z,99453.10
2018-03-24T09:03:57.595Z,99451.47
2018-03-24T09:05:03.546Z,99450.27
2018-03-24T09:06:09.881Z,99447.14
2018-03-24T09:07:16.176Z,99448.59
2018-03-24T09:08:22.436Z,99449.64
2018-03-24T09:09:29.010Z,99447.75
2018-03-24T09:10:35.265Z,99448.71
2018-03-24T09:11:41.491Z,99447.67
2018-03-24T09:12:47.734Z,99444.78
2018-03-24T09:13:54.054Z,99447.09
2018-03-24T09:15:00.297Z,99448.58
2018-03-24T09:16:09.165Z,99446.50
2018-03-24T09:17:16.256Z,99442.35
2018-03-24T09:18:22.511Z,99448.84
2018-03-24T09:19:28.829Z,99449.72
2018-03-24T09:20:35.133Z,99440.28
2018-03-24T09:21:41.422Z,99449.59
2018-03-24T09:22:47.732Z,99447.54
2018-03-24T09:23:53.969Z,99450.14
2018-03-24T09:25:00.280Z,99450.07
2018-03-24T09:26:06.661Z,99448.81
2018-03-24T09:27:13.908Z,99444.52
2018-03-24T09:28:20.173Z,99444.33
2018-03-24T09:29:31.143Z,99451.68
2018-03-24T09:30:37.400Z,99447.33
2018-03-24T09:31:45.356Z,99442.04
2018-03-24T09:32:51.689Z,99446.63
2018-03-24T09:33:58.039Z,99440.52
2018-03-24T09:35:04.013Z,99448.69
2018-03-24T09:36:10.695Z,99447.48
2018-03-24T09:37:21.779Z,99446.03
2018-03-24T09:38:28.031Z,99444.94
2018-03-24T09:39:34.392Z,99448.65
2018-03-24T09:40:41.621Z,99446.03
2018-03-24T09:41:47.891Z,99443.74
2018-03-24T09:42:54.148Z,99443.84
2018-03-24T09:44:00.417Z,99442.55
2018-03-24T09:45:10.202Z,99442.25
2018-03-24T09:46:18.365Z,99438.45
2018-03-24T09:47:24.651Z,99431.78
2018-03-24T09:48:31.147Z,99436.92
2018-03-24T09:49:37.401Z,99444.55
2018-03-24T09:50:43.694Z,99441.02
2018-03-24T09:51:49.908Z,99436.87
2018-03-24T09:52:56.287Z,99447.22
2018-03-24T09:54:02.596Z,99446.95
2018-03-24T09:55:08.874Z,99440.52
2018-03-24T09:56:15.152Z,99443.18
2018-03-24T09:57:21.385Z,99445.86
2018-03-24T09:58:30.535Z,99441.57
2018-03-24T09:59:36.928Z,99442.62
2018-03-24T10:00:43.170Z,99440.34
2018-03-24T10:01:49.455Z,99442.02
2018-03-24T10:02:55.721Z,99441.09
2018-03-24T10:04:02.013Z,99445.13
2018-03-24T10:05:08.351Z,99446.96
2018-03-24T10:06:14.630Z,99443.07
2018-03-24T10:07:20.912Z,99448.85
2018-03-24T10:08:27.241Z,99444.73
2018-03-24T10:09:33.516Z,99441.70
2018-03-24T10:10:44.782Z,99441.16
2018-03-24T10:11:51.086Z,99446.59
2018-03-24T10:13:00.385Z,99440.33
2018-03-24T10:14:06.910Z,99442.58
2018-03-24T10:15:12.952Z,99434.17
2018-03-24T10:16:19.191Z,99436.59
2018-03-24T10:17:25.486Z,99443.16
2018-03-24T10:18:31.900Z,99444.02
2018-03-24T10:19:38.137Z,99439.88
2018-03-24T10:33:08.839Z,99437.89
2018-03-24T10:34:15.298Z,99434.31
2018-03-24T10:35:21.652Z,99440.38
2018-03-24T10:36:27.967Z,99440.09
2018-03-24T10:37:39.719Z,99442.52
2018-03-24T10:38:45.942Z,99443.13
2018-03-24T10:39:52.153Z,99436.84
2018-03-24T10:41:06.473Z,99434.31
2018-03-24T10:42:16.682Z,99441.28
2018-03-24T10:43:28.629Z,99435.59
2018-03-24T10:44:35.189Z,99440.21
2018-03-24T10:45:43.485Z,99433.88
2018-03-24T10:46:49.784Z,99428.60
2018-03-24T10:48:01.649Z,99431.31
2018-03-24T10:49:07.856Z,99428.43
2018-03-24T10:50:14.149Z,99428.31
2018-03-24T10:51:20.368Z,99431.58
2018-03-24T10:52:26.704Z,99435.56
2018-03-24T10:53:33.004Z,99432.80
2018-03-24T10:54:39.252Z,99433.70
2018-03-24T10:55:45.522Z,99432.36
2018-03-24T10:56:54.829Z,99432.19
2018-03-24T10:58:01.148Z,99425.58
2018-03-24T10:59:07.417Z,99427.55
2018-03-24T11:00:13.532Z,99430.52
2018-03-24T11:01:24.048Z,99430.33
2018-03-24T11:02:30.435Z,99431.77
2018-03-24T11:03:36.726Z,99429.05
2018-03-24T11:04:43.017Z,99425.39
2018-03-24T11:05:49.152Z,99426.33
2018-03-24T11:06:55.377Z,99419.55
2018-03-24T11:08:02.384Z,99425.10
2018-03-24T11:09:08.650Z,99427.05
2018-03-24T11:10:14.969Z,99431.63
2018-03-24T11:11:21.209Z,99427.44
2018-03-24T11:12:27.562Z,99430.85
2018-03-24T11:13:34.960Z,99427.45
2018-03-24T11:14:41.229Z,99423.60
2018-03-24T11:15:47.453Z,99428.39
2018-03-24T11:16:53.661Z,99426.80
2018-03-24T11:17:59.975Z,99426.05
2018-03-24T11:19:06.253Z,99424.41
2018-03-24T11:20:12.548Z,99423.09
2018-03-24T11:21:19.176Z,99420.33
2018-03-24T11:22:25.446Z,99418.20
2018-03-24T11:23:31.732Z,99422.86
2018-03-24T11:24:37.993Z,99420.16
2018-03-24T11:25:44.284Z,99422.33
2018-03-24T11:26:50.574Z,99421.08
2018-03-24T11:27:56.489Z,99419.13
2018-03-24T11:29:02.749Z,99419.48
2018-03-24T11:30:11.658Z,99420.65
2018-03-24T11:31:17.955Z,99417.92
2018-03-24T11:32:24.205Z,99419.19
2018-03-24T11:33:30.568Z,99415.55
2018-03-24T11:34:36.831Z,99416.63
2018-03-24T11:35:43.391Z,99421.30
2018-03-24T11:36:49.657Z,99419.05
2018-03-24T11:37:55.873Z,99416.36
2018-03-24T11:39:03.073Z,99416.72
2018-03-24T11:40:10.426Z,99418.25
2018-03-24T11:41:17.230Z,99419.17
2018-03-24T11:42:23.429Z,99415.13
2018-03-24T11:43:30.143Z,99418.35
2018-03-24T11:44:36.394Z,99423.78
2018-03-24T11:45:42.655Z,99418.91
2018-03-24T11:46:48.956Z,99421.26
2018-03-24T11:47:55.274Z,99419.67
2018-03-24T11:49:01.535Z,99414.81
2018-03-24T11:50:09.430Z,99417.16
2018-03-24T11:51:15.907Z,99420.31
2018-03-24T11:52:27.689Z,99417.38
2018-03-24T11:53:44.905Z,99413.10
2018-03-24T11:54:51.441Z,99419.11
2018-03-24T11:55:57.662Z,99417.06
2018-03-24T11:57:09.729Z,99417.31
2018-03-24T11:58:15.938Z,99416.50
2018-03-24T11:59:22.129Z,99425.40
2018-03-24T12:00:28.400Z,99419.08
2018-03-24T12:01:39.724Z,99417.50
2018-03-24T12:02:46.041Z,99420.95
2018-03-24T12:03:52.321Z,99417.91
2018-03-24T12:04:58.535Z,99415.26
2018-03-24T12:06:04.469Z,99411.94
2018-03-24T12:07:10.774Z,99418.09
2018-03-24T12:08:17.098Z,99406.95
2018-03-24T12:09:23.511Z,99401.53
2018-03-24T12:10:29.785Z,99404.91
2018-03-24T12:11:36.050Z,99406.08
2018-03-24T12:12:42.856Z,99407.45
2018-03-24T12:13:51.649Z,99408.38
2018-03-24T12:14:57.988Z,99410.86
2018-03-24T12:16:03.854Z,99409.89
2018-03-24T12:17:10.103Z,99401.46
2018-03-24T12:18:16.375Z,99409.44
2018-03-24T12:19:26.552Z,99411.38
2018-03-24T12:20:36.718Z,99402.40
2018-03-24T12:21:48.043Z,99399.16
2018-03-24T12:22:54.325Z,99399.69
2018-03-24T12:24:00.618Z,99393.11
2018-03-24T12:25:06.929Z,99394.51
2018-03-24T12:26:13.190Z,99394.83
2018-03-24T12:27:19.467Z,99397.59
2018-03-24T12:28:25.691Z,99392.53
2018-03-24T12:29:33.076Z,99400.32
2018-03-24T12:30:39.314Z,99396.33
2018-03-24T12:31:45.579Z,99391.61
2018-03-24T12:32:52.796Z,99389.68
2018-03-24T12:33:59.070Z,99393.27
2018-03-24T12:35:04.699Z,99386.74
2018-03-24T12:36:12.950Z,99393.41
2018-03-24T12:37:19.532Z,99388.95
2018-03-24T12:38:25.779Z,99394.68
2018-03-24T12:39:32.088Z,99398.48
2018-03-24T12:40:38.382Z,99396.93
2018-03-24T12:41:50.362Z,99392.40
2018-03-24T12:42:56.608Z,99396.19
2018-03-24T12:44:02.858Z,99400.75
2018-03-24T12:45:09.190Z,99398.09
2018-03-24T12:46:15.422Z,99398.55
2018-03-24T12:47:25.576Z,99400.52
2018-03-24T12:48:31.816Z,99400.39
2018-03-24T12:49:43.807Z,99394.80
2018-03-24T12:50:50.067Z,99394.88
2018-03-24T12:51:56.763Z,99390.23
2018-03-24T12:53:03.102Z,99395.34
2018-03-24T12:54:12.231Z,99394.50
2018-03-24T12:55:19.242Z,99399.42
2018-03-24T12:56:25.567Z,99395.93
2018-03-24T12:57:34.856Z,99393.02
2018-03-24T12:58:43.768Z,99395.17
2018-03-24T12:59:54.859Z,99393.98
2018-03-24T13:01:01.616Z,99397.88
2018-03-24T13:02:07.934Z,99389.27
2018-03-24T13:03:14.182Z,99391.97
2018-03-24T13:04:24.422Z,99398.92
2018-03-24T13:05:30.651Z,99389.61
2018-03-24T13:06:36.927Z,99387.11
2018-03-24T13:07:43.254Z,99393.89
2018-03-24T13:08:49.503Z,99394.67
2018-03-24T13:09:55.814Z,99392.30
2018-03-24T13:11:02.081Z,99392.88
2018-03-24T13:12:08.103Z,99391.55
2018-03-24T13:13:14.374Z,99392.81
2018-03-24T13:14:21.569Z,99392.09
2018-03-24T13:15:27.848Z,99392.82
2018-03-24T13:16:40.387Z,99391.99
2018-03-24T13:17:50.698Z,99388.52
2018-03-24T13:18:56.938Z,99391.61
2018-03-24T13:20:03.290Z,99389.92
2018-03-24T13:21:09.334Z,99389.52
2018-03-24T13:22:15.658Z,99390.69
2018-03-24T13:23:21.985Z,99393.06